Time;durP1;ratioP1;P1;durP2;ratioP2;P2;SDS_P1;SDS_P2;PMS_P1;PMS_P2;Temp;Humidity;BMP_temperature;BMP_pressure;BME280_temperature;BME280_humidity;BME280_pressure;Samples;Min_cycle;Max_cycle;Signal;HPM_P1;HPM_P2
2021/11/29 00:01:12;;;;;;;15.40;8.77;;;;;;;2.81;100.00;97948.75;5075379;28;20400;-72
2021/11/29 00:03:41;;;;;;;18.33;9.80;;;;;;;2.83;100.00;97954.75;5075664;28;20059;-74
2021/11/29 00:06:09;;;;;;;15.95;9.23;;;;;;;2.91;100.00;97941.09;5075369;28;20482;-74
2021/11/29 00:08:38;;;;;;;14.85;9.13;;;;;;;2.98;100.00;97942.34;5075345;28;20155;-72
2021/11/29 00:11:06;;;;;;;14.75;9.43;;;;;;;2.98;100.00;97944.13;5075553;28;20044;-73
2021/11/29 00:13:35;;;;;;;15.68;9.30;;;;;;;2.95;100.00;97937.28;5075237;28;20413;-72
2021/11/29 00:16:03;;;;;;;15.43;9.63;;;;;;;3.00;100.00;97942.25;5075444;28;20049;-73
2021/11/29 00:18:33;;;;;;;17.90;10.57;;;;;;;2.99;100.00;97949.31;5075059;28;20044;-79
2021/11/29 00:21:02;;;;;;;17.45;10.57;;;;;;;2.88;100.00;97955.28;5075336;28;20044;-79
2021/11/29 00:23:31;;;;;;;17.95;10.43;;;;;;;2.92;100.00;97963.00;5074743;28;20037;-79
2021/11/29 00:26:00;;;;;;;16.05;9.15;;;;;;;2.92;100.00;97969.09;5075512;28;20048;-79
2021/11/29 00:28:28;;;;;;;18.27;10.43;;;;;;;2.80;100.00;97980.44;5074867;28;20072;-78
2021/11/29 00:30:57;;;;;;;17.42;11.13;;;;;;;2.83;100.00;97993.38;5074880;28;20068;-78
2021/11/29 00:33:25;;;;;;;18.38;11.23;;;;;;;2.85;100.00;97984.44;5074879;28;20102;-78
2021/11/29 00:35:55;;;;;;;19.10;11.18;;;;;;;2.67;100.00;97988.25;5075023;28;20040;-79
2021/11/29 00:38:24;;;;;;;18.83;10.65;;;;;;;2.70;100.00;97992.47;5074678;28;20040;-78
2021/11/29 00:40:52;;;;;;;17.95;9.60;;;;;;;2.68;100.00;97997.84;5074788;28;20141;-78
2021/11/29 00:43:20;;;;;;;19.80;10.30;;;;;;;2.68;100.00;97989.94;5074585;28;20045;-76
2021/11/29 00:45:48;;;;;;;21.08;11.43;;;;;;;2.69;100.00;97983.72;5074840;28;20123;-77
2021/11/29 00:48:17;;;;;;;23.02;12.65;;;;;;;2.74;100.00;97989.56;5074090;28;20469;-78
2021/11/29 00:50:45;;;;;;;22.42;13.02;;;;;;;2.75;100.00;97983.34;5074505;28;20048;-78
2021/11/29 00:53:15;;;;;;;19.05;10.95;;;;;;;2.75;100.00;97988.63;5074817;28;20041;-77
2021/11/29 00:55:43;;;;;;;18.77;10.68;;;;;;;2.72;100.00;97993.25;5073968;28;20097;-77
2021/11/29 00:58:11;;;;;;;22.75;13.23;;;;;;;2.71;100.00;97981.03;5074573;28;20037;-77
2021/11/29 01:00:40;;;;;;;22.23;11.48;;;;;;;2.70;100.00;97980.19;5074031;28;20048;-77
2021/11/29 01:03:10;;;;;;;24.67;13.07;;;;;;;2.73;100.00;97974.72;5074612;28;20049;-75
2021/11/29 01:05:39;;;;;;;25.50;13.70;;;;;;;2.67;100.00;97982.16;5074150;28;20113;-77
2021/11/29 01:08:07;;;;;;;25.35;14.15;;;;;;;2.70;100.00;97977.56;5074574;28;20123;-77
2021/11/29 01:10:37;;;;;;;25.25;14.73;;;;;;;2.66;100.00;97973.41;5073029;28;20045;-77
2021/11/29 01:13:05;;;;;;;25.05;14.57;;;;;;;2.75;100.00;97977.25;5074356;28;20090;-77
2021/11/29 01:15:36;;;;;;;23.75;13.85;;;;;;;2.71;100.00;97992.41;5073968;28;20047;-77
2021/11/29 01:18:11;;;;;;;25.80;13.93;;;;;;;2.64;100.00;97988.47;5072562;28;20048;-76
2021/11/29 01:20:42;;;;;;;25.35;13.23;;;;;;;2.59;100.00;97996.63;5073925;28;20048;-75
2021/11/29 01:23:11;;;;;;;23.55;13.68;;;;;;;2.69;100.00;97996.88;5074200;28;20474;-76
2021/11/29 01:25:42;;;;;;;23.15;13.60;;;;;;;2.71;100.00;97991.56;5073842;28;20079;-77
2021/11/29 01:28:11;;;;;;;26.00;14.80;;;;;;;2.66;100.00;97986.56;5074175;28;20048;-77
2021/11/29 01:30:39;;;;;;;25.80;14.90;;;;;;;2.66;100.00;97989.19;5073416;28;20559;-78
2021/11/29 01:33:07;;;;;;;25.42;14.90;;;;;;;2.75;100.00;97993.03;5073938;28;20041;-78
2021/11/29 01:35:36;;;;;;;22.35;13.13;;;;;;;2.81;100.00;98004.03;5073646;28;20037;-78
2021/11/29 01:38:05;;;;;;;22.50;12.07;;;;;;;2.76;100.00;98006.09;5073565;28;20056;-78
2021/11/29 01:40:34;;;;;;;23.42;13.13;;;;;;;2.76;100.00;98006.09;5073443;28;20101;-78
2021/11/29 01:43:05;;;;;;;28.02;15.40;;;;;;;2.78;100.00;98004.19;5073516;28;20058;-79
2021/11/29 01:45:37;;;;;;;24.42;13.55;;;;;;;2.80;100.00;97996.22;5073504;28;20044;-79
2021/11/29 01:48:06;;;;;;;25.30;13.50;;;;;;;2.86;100.00;97980.03;5073821;28;20041;-79
2021/11/29 01:50:35;;;;;;;22.00;10.93;;;;;;;2.78;100.00;97983.13;5073296;28;20123;-78
2021/11/29 01:53:06;;;;;;;23.50;14.30;;;;;;;2.72;100.00;97991.44;5073816;28;20072;-75
2021/11/29 01:55:36;;;;;;;25.33;15.07;;;;;;;2.74;100.00;97996.63;5073476;28;20533;-78
2021/11/29 01:58:06;;;;;;;24.10;13.18;;;;;;;2.88;100.00;97986.03;5073524;28;20051;-78
2021/11/29 02:00:39;;;;;;;20.63;11.07;;;;;;;2.84;100.00;97997.72;5073393;28;20455;-79
2021/11/29 02:03:08;;;;;;;24.58;14.02;;;;;;;2.78;100.00;97993.66;5073791;28;20553;-77
2021/11/29 02:05:36;;;;;;;23.92;14.05;;;;;;;2.78;100.00;97991.03;5073548;28;20098;-79
2021/11/29 02:08:05;;;;;;;23.35;13.43;;;;;;;2.75;100.00;97999.16;5073211;28;20044;-78
2021/11/29 02:10:33;;;;;;;23.65;13.63;;;;;;;2.80;100.00;97991.81;5088377;28;20139;-78
2021/11/29 02:13:02;;;;;;;23.85;13.55;;;;;;;2.76;100.00;97989.47;5073231;28;20428;-78
2021/11/29 02:15:31;;;;;;;26.67;15.05;;;;;;;2.81;100.00;97993.50;5072555;28;20394;-78
2021/11/29 02:18:00;;;;;;;24.90;12.30;;;;;;;2.75;100.00;97988.63;5073030;28;20054;-77
2021/11/29 02:20:31;;;;;;;21.40;11.85;;;;;;;2.67;100.00;97996.16;5072770;28;20033;-72
2021/11/29 02:23:00;;;;;;;25.10;14.98;;;;;;;2.61;100.00;97986.03;5072901;28;20059;-72
2021/11/29 02:25:30;;;;;;;28.52;15.07;;;;;;;2.75;100.00;97983.34;5072834;28;20044;-72
2021/11/29 02:27:58;;;;;;;18.30;8.80;;;;;;;2.80;100.00;97978.66;5072995;28;20044;-72
2021/11/29 02:30:30;;;;;;;24.67;13.77;;;;;;;2.77;100.00;97984.09;5072714;28;20440;-72
2021/11/29 02:32:58;;;;;;;22.67;12.73;;;;;;;2.69;100.00;98002.16;5073216;28;20468;-77
2021/11/29 02:35:27;;;;;;;16.42;8.45;;;;;;;2.64;100.00;97991.09;5072653;28;20055;-78
2021/11/29 02:37:57;;;;;;;21.60;12.02;;;;;;;2.67;100.00;97990.03;5072931;28;20434;-77
2021/11/29 02:40:27;;;;;;;17.67;9.15;;;;;;;2.71;100.00;97991.56;5072256;28;20040;-78
2021/11/29 02:42:56;;;;;;;16.13;9.48;;;;;;;2.66;100.00;97988.34;5072580;28;20048;-77
2021/11/29 02:45:24;;;;;;;17.85;10.05;;;;;;;2.64;100.00;97991.09;5072469;28;20473;-74
2021/11/29 02:47:54;;;;;;;22.83;13.23;;;;;;;2.65;100.00;97974.34;5073040;28;20051;-78
2021/11/29 02:50:22;;;;;;;25.00;14.48;;;;;;;2.65;100.00;97971.72;5072805;28;20066;-78
2021/11/29 02:52:51;;;;;;;24.85;14.05;;;;;;;2.67;100.00;97967.19;5072470;28;20045;-77
2021/11/29 02:55:21;;;;;;;24.10;13.48;;;;;;;2.71;100.00;97960.81;5072495;28;20444;-77
2021/11/29 02:57:49;;;;;;;23.70;13.55;;;;;;;2.70;100.00;97959.13;5072404;28;20047;-77
2021/11/29 03:00:17;;;;;;;22.52;11.73;;;;;;;2.70;100.00;97945.09;5072626;28;20436;-81
2021/11/29 03:02:45;;;;;;;25.83;14.32;;;;;;;2.65;100.00;97939.28;5072579;28;20049;-80
2021/11/29 03:05:14;;;;;;;23.02;14.05;;;;;;;2.66;100.00;97931.28;5072360;28;20409;-79
2021/11/29 03:07:45;;;;;;;22.10;13.25;;;;;;;2.66;100.00;97936.56;5072246;28;20048;-75
2021/11/29 03:10:14;;;;;;;20.27;11.45;;;;;;;2.58;100.00;97954.63;5073371;28;20048;-74
2021/11/29 03:12:43;;;;;;;23.08;13.77;;;;;;;2.60;100.00;97963.25;5075916;28;20109;-76
2021/11/29 03:15:11;;;;;;;22.85;14.02;;;;;;;2.57;100.00;97974.84;5076457;28;20416;-76
2021/11/29 03:17:40;;;;;;;26.02;15.20;;;;;;;2.62;100.00;97971.09;5076120;28;20047;-82
2021/11/29 03:20:12;;;;;;;18.13;9.85;;;;;;;2.55;100.00;97966.19;5076099;28;20048;-73
2021/11/29 03:22:41;;;;;;;22.58;14.85;;;;;;;2.56;100.00;97972.31;5076070;28;20044;-73
2021/11/29 03:25:10;;;;;;;24.10;14.55;;;;;;;2.44;100.00;97968.69;5076483;28;20052;-74
2021/11/29 03:27:39;;;;;;;19.23;11.38;;;;;;;2.50;100.00;97972.69;5075925;28;20068;-74
2021/11/29 03:30:11;;;;;;;19.67;10.48;;;;;;;2.47;100.00;97976.38;5076377;28;20421;-74
2021/11/29 03:32:40;;;;;;;23.10;14.02;;;;;;;2.44;100.00;97973.09;5075627;28;20071;-75
2021/11/29 03:35:10;;;;;;;21.50;12.95;;;;;;;2.42;100.00;97975.00;5075736;28;20110;-74
2021/11/29 03:37:39;;;;;;;24.67;14.30;;;;;;;2.40;100.00;97982.09;5075493;28;20055;-75
2021/11/29 03:40:08;;;;;;;23.30;14.45;;;;;;;2.46;100.00;97979.09;5076110;28;20048;-75
2021/11/29 03:42:38;;;;;;;24.08;14.98;;;;;;;2.48;100.00;97995.63;5075647;28;20073;-75
2021/11/29 03:45:07;;;;;;;24.10;14.95;;;;;;;2.52;100.00;97997.16;5075587;28;20045;-75
2021/11/29 03:47:36;;;;;;;22.95;13.35;;;;;;;2.52;100.00;98002.41;5075561;28;20063;-75
2021/11/29 03:50:06;;;;;;;18.80;12.10;;;;;;;2.57;100.00;98005.56;5075907;28;20048;-75
2021/11/29 03:52:34;;;;;;;23.75;13.90;;;;;;;2.57;100.00;98010.84;5075167;28;20063;-76
2021/11/29 03:55:02;;;;;;;23.05;12.73;;;;;;;2.63;100.00;98012.25;5075527;28;20048;-76
2021/11/29 03:57:31;;;;;;;17.00;11.07;;;;;;;2.59;100.00;98006.31;5075402;28;20045;-76
2021/11/29 03:59:59;;;;;;;20.23;11.60;;;;;;;2.60;100.00;98010.63;5075570;28;20535;-76
2021/11/29 04:02:27;;;;;;;23.80;13.93;;;;;;;2.68;100.00;98013.63;5075818;28;20061;-74
2021/11/29 04:04:57;;;;;;;20.10;11.73;;;;;;;2.64;100.00;98014.78;5075490;28;20047;-77
2021/11/29 04:07:26;;;;;;;20.17;12.18;;;;;;;2.71;100.00;98009.97;5075483;28;20120;-74
2021/11/29 04:09:54;;;;;;;22.88;13.10;;;;;;;2.70;100.00;98014.41;5074821;28;20040;-73
2021/11/29 04:12:22;;;;;;;20.50;11.77;;;;;;;2.72;100.00;98014.31;5074455;28;20098;-74
2021/11/29 04:14:50;;;;;;;17.75;11.07;;;;;;;2.66;100.00;98014.69;5075069;28;20045;-74
2021/11/29 04:17:19;;;;;;;15.32;9.05;;;;;;;2.62;100.00;98006.16;5075514;28;20041;-74
2021/11/29 04:19:47;;;;;;;20.73;11.45;;;;;;;2.64;100.00;98008.69;5074876;28;20036;-76
2021/11/29 04:22:20;;;;;;;21.95;13.00;;;;;;;2.64;100.00;98011.31;5073749;28;20468;-74
2021/11/29 04:24:48;;;;;;;22.45;13.02;;;;;;;2.69;100.00;98009.22;5074704;28;20040;-74
2021/11/29 04:27:17;;;;;;;21.83;12.32;;;;;;;2.69;100.00;98001.31;5074235;28;20139;-75
2021/11/29 04:29:47;;;;;;;20.95;12.93;;;;;;;2.67;100.00;97992.69;5074760;28;20435;-75
2021/11/29 04:32:15;;;;;;;21.25;12.38;;;;;;;2.69;100.00;97998.69;5075266;28;20052;-74
2021/11/29 04:34:43;;;;;;;21.33;12.95;;;;;;;2.75;100.00;98014.94;5074447;28;20049;-77
2021/11/29 04:37:12;;;;;;;24.27;13.30;;;;;;;2.75;100.00;98006.19;5074763;28;20050;-76
2021/11/29 04:39:41;;;;;;;22.35;14.00;;;;;;;2.67;100.00;98016.38;5074366;28;20041;-76
2021/11/29 04:42:10;;;;;;;23.65;14.07;;;;;;;2.68;100.00;98016.25;5074769;28;20032;-76
2021/11/29 04:44:38;;;;;;;21.38;13.23;;;;;;;2.71;100.00;98034.50;5074602;28;20110;-76
2021/11/29 04:47:06;;;;;;;23.92;11.73;;;;;;;2.69;100.00;98025.84;5074474;28;20041;-75
2021/11/29 04:49:34;;;;;;;24.85;13.52;;;;;;;2.69;100.00;98033.75;5074403;28;20048;-77
2021/11/29 04:52:03;;;;;;;21.45;11.50;;;;;;;2.71;100.00;98034.50;5074344;28;20044;-76
2021/11/29 04:54:31;;;;;;;23.10;13.05;;;;;;;2.61;100.00;98049.19;5074381;28;20047;-76
2021/11/29 04:57:01;;;;;;;21.98;12.65;;;;;;;2.64;100.00;98043.72;5074241;28;20044;-76
2021/11/29 04:59:29;;;;;;;22.13;11.52;;;;;;;2.55;100.00;98044.31;5074204;28;20032;-76
2021/11/29 05:01:58;;;;;;;17.20;10.02;;;;;;;2.55;100.00;98052.22;5073968;28;20474;-77
2021/11/29 05:04:27;;;;;;;22.77;13.00;;;;;;;2.54;100.00;98045.25;5074440;28;20048;-75
2021/11/29 05:06:55;;;;;;;19.80;11.43;;;;;;;2.52;100.00;98055.03;5073985;28;20045;-76
2021/11/29 05:09:23;;;;;;;24.10;12.27;;;;;;;2.50;100.00;98064.78;5073964;28;20076;-76
2021/11/29 05:11:51;;;;;;;21.15;12.50;;;;;;;2.47;100.00;98057.09;5073910;28;20490;-76
2021/11/29 05:14:21;;;;;;;21.48;9.98;;;;;;;2.52;100.00;98057.66;5074186;28;20036;-76
2021/11/29 05:16:49;;;;;;;16.50;7.72;;;;;;;2.48;100.00;98061.41;5073763;28;20051;-76
2021/11/29 05:19:18;;;;;;;22.42;12.23;;;;;;;2.46;100.00;98064.16;5073737;28;20477;-75
2021/11/29 05:21:46;;;;;;;15.70;8.50;;;;;;;2.50;100.00;98060.38;5073342;28;20547;-76
2021/11/29 05:24:14;;;;;;;20.85;11.85;;;;;;;2.50;100.00;98062.16;5073852;28;20045;-75
2021/11/29 05:26:46;;;;;;;15.05;8.02;;;;;;;2.49;100.00;98057.84;5072469;28;20489;-76
2021/11/29 05:29:15;;;;;;;22.95;11.35;;;;;;;2.52;100.00;98055.03;5074020;28;20040;-75
2021/11/29 05:31:45;;;;;;;18.88;8.57;;;;;;;2.52;100.00;98060.31;5073651;28;20074;-76
2021/11/29 05:34:14;;;;;;;22.85;12.45;;;;;;;2.59;100.00;98057.16;5073717;28;20056;-76
2021/11/29 05:36:45;;;;;;;19.45;10.77;;;;;;;2.61;100.00;98054.47;5073658;28;20150;-76
2021/11/29 05:39:15;;;;;;;20.95;12.43;;;;;;;2.60;100.00;98060.63;5073715;28;20040;-76
2021/11/29 05:41:44;;;;;;;22.63;11.95;;;;;;;2.65;100.00;98065.63;5073329;28;20044;-76
2021/11/29 05:44:13;;;;;;;21.42;11.18;;;;;;;2.70;100.00;98058.28;5073843;28;20405;-76
2021/11/29 05:46:42;;;;;;;17.05;8.60;;;;;;;2.62;100.00;98064.06;5073196;28;20072;-76
2021/11/29 05:49:12;;;;;;;22.13;11.77;;;;;;;2.58;100.00;98070.44;5073512;28;20090;-76
2021/11/29 05:51:40;;;;;;;22.17;10.40;;;;;;;2.56;100.00;98072.31;5073204;28;20158;-77
2021/11/29 05:54:08;;;;;;;14.40;7.57;;;;;;;2.51;100.00;98096.31;5073515;28;20086;-76
2021/11/29 05:56:37;;;;;;;16.65;7.15;;;;;;;2.45;100.00;98098.44;5073520;28;20119;-74
2021/11/29 05:59:05;;;;;;;21.92;12.30;;;;;;;2.52;100.00;98091.88;5073352;28;20523;-74
2021/11/29 06:01:34;;;;;;;22.83;13.18;;;;;;;2.53;100.00;98093.56;5073087;28;20056;-73
2021/11/29 06:04:03;;;;;;;20.88;12.27;;;;;;;2.59;100.00;98099.28;5073118;28;20126;-73
2021/11/29 06:06:32;;;;;;;23.05;12.15;;;;;;;2.55;100.00;98096.94;5073304;28;20064;-74
2021/11/29 06:09:00;;;;;;;21.95;12.50;;;;;;;2.59;100.00;98095.81;5073028;28;20131;-73
2021/11/29 06:11:28;;;;;;;10.77;6.18;;;;;;;2.65;100.00;98098.06;5073246;28;20067;-73
2021/11/29 06:13:57;;;;;;;19.42;10.85;;;;;;;2.57;100.00;98101.16;5072895;28;20044;-72
2021/11/29 06:16:25;;;;;;;20.42;11.43;;;;;;;2.56;100.00;98112.63;5072813;28;20051;-73
2021/11/29 06:18:53;;;;;;;23.17;12.20;;;;;;;2.55;100.00;98112.75;5072813;28;20055;-73
2021/11/29 06:21:21;;;;;;;23.02;12.50;;;;;;;2.52;100.00;98118.19;5073135;28;20094;-73
2021/11/29 06:23:53;;;;;;;18.83;9.48;;;;;;;2.53;100.00;98125.16;5072419;28;20123;-71
2021/11/29 06:26:22;;;;;;;20.58;10.98;;;;;;;2.55;100.00;98129.38;5073252;28;20131;-72
2021/11/29 06:28:51;;;;;;;21.48;12.32;;;;;;;2.61;100.00;98132.59;5072463;28;20110;-72
2021/11/29 06:31:19;;;;;;;20.92;11.15;;;;;;;2.69;100.00;98136.41;5073037;28;20385;-72
2021/11/29 06:33:52;;;;;;;21.10;11.18;;;;;;;2.78;100.00;98135.84;5072696;28;20036;-73
2021/11/29 06:36:20;;;;;;;18.65;9.82;;;;;;;2.74;100.00;98139.63;5073019;28;20465;-75
2021/11/29 06:38:49;;;;;;;21.50;11.38;;;;;;;2.75;100.00;98146.56;5072720;28;20052;-78
2021/11/29 06:41:20;;;;;;;19.90;10.38;;;;;;;2.81;100.00;98142.72;5072792;28;20075;-74
2021/11/29 06:43:48;;;;;;;22.25;11.60;;;;;;;2.94;100.00;98140.16;5072456;28;20124;-81
2021/11/29 06:46:16;;;;;;;20.13;12.23;;;;;;;2.97;100.00;98147.88;5075461;28;20040;-78
2021/11/29 06:48:45;;;;;;;21.00;11.35;;;;;;;2.87;100.00;98155.50;5076510;28;20041;-77
2021/11/29 06:51:15;;;;;;;16.45;8.63;;;;;;;2.79;100.00;98148.06;5077171;28;20050;-77
2021/11/29 06:53:44;;;;;;;19.23;10.43;;;;;;;2.74;100.00;98152.78;5076863;28;20451;-78
2021/11/29 06:56:13;;;;;;;24.10;11.93;;;;;;;2.69;100.00;98152.19;5077132;28;20098;-78
2021/11/29 06:59:03;;;;;;;22.13;12.30;;;;;;;2.73;100.00;98155.50;5076812;28;20054;-77
2021/11/29 07:01:51;;;;;;;21.10;12.63;;;;;;;2.79;100.00;98169.13;5076337;28;20060;-76
2021/11/29 07:04:40;;;;;;;17.30;10.85;;;;;;;2.79;100.00;98155.97;5076662;28;20044;-71
2021/11/29 07:07:28;;;;;;;21.30;11.55;;;;;;;2.85;100.00;98163.50;5076377;28;20048;-72
2021/11/29 07:09:56;;;;;;;18.73;10.20;;;;;;;2.81;100.00;98172.53;5076062;28;20082;-73
2021/11/29 07:12:24;;;;;;;19.80;10.25;;;;;;;2.68;100.00;98171.56;5076613;28;20390;-72
2021/11/29 07:14:55;;;;;;;14.35;7.63;;;;;;;2.61;100.00;98175.53;5076289;28;20044;-72
2021/11/29 07:17:24;;;;;;;22.20;13.25;;;;;;;2.66;100.00;98191.88;5076452;28;20063;-72
2021/11/29 07:19:53;;;;;;;16.35;7.88;;;;;;;2.68;100.00;98182.09;5076327;28;20048;-73
2021/11/29 07:22:24;;;;;;;24.95;13.50;;;;;;;2.78;100.00;98198.19;5076098;28;20086;-72
2021/11/29 07:24:53;;;;;;;17.98;9.95;;;;;;;2.87;100.00;98193.19;5076299;28;20044;-72
2021/11/29 07:27:22;;;;;;;16.48;8.98;;;;;;;2.87;100.00;98210.78;5076215;28;20105;-71
2021/11/29 07:29:52;;;;;;;20.92;11.85;;;;;;;2.76;100.00;98216.72;5076030;28;20045;-70
2021/11/29 07:32:25;;;;;;;21.13;11.73;;;;;;;2.89;100.00;98222.06;5076033;28;20044;-72
2021/11/29 07:34:53;;;;;;;17.63;10.25;;;;;;;2.82;100.00;98221.63;5076157;28;20045;-71
2021/11/29 07:37:21;;;;;;;11.98;6.30;;;;;;;2.66;100.00;98230.53;5076028;28;20037;-71
2021/11/29 07:39:52;;;;;;;15.73;9.80;;;;;;;2.72;100.00;98235.44;5075688;28;20342;-72
2021/11/29 07:42:21;;;;;;;20.35;12.40;;;;;;;2.82;100.00;98226.03;5076254;28;20036;-70
2021/11/29 07:44:49;;;;;;;22.58;12.35;;;;;;;2.90;100.00;98230.84;5075717;28;20405;-70
2021/11/29 07:47:17;;;;;;;22.60;11.85;;;;;;;3.00;100.00;98226.69;5076019;28;20090;-72
2021/11/29 07:49:47;;;;;;;15.02;8.65;;;;;;;2.84;100.00;98230.25;5075752;28;20066;-70
2021/11/29 07:52:15;;;;;;;18.30;8.15;;;;;;;2.84;100.00;98232.06;5075816;28;20040;-71
2021/11/29 07:54:44;;;;;;;14.23;7.38;;;;;;;2.63;100.00;98236.81;5075965;28;20068;-71
2021/11/29 07:57:16;;;;;;;18.40;9.30;;;;;;;2.65;100.00;98234.94;5075796;28;20048;-71
2021/11/29 07:59:46;;;;;;;21.02;11.23;;;;;;;2.64;100.00;98233.25;5075848;28;20032;-71
2021/11/29 08:02:19;;;;;;;19.65;11.80;;;;;;;2.79;100.00;98234.94;5075670;28;20068;-71
2021/11/29 08:04:49;;;;;;;18.15;10.48;;;;;;;2.82;100.00;98236.56;5075705;28;20533;-72
2021/11/29 08:07:17;;;;;;;12.95;7.75;;;;;;;2.82;100.00;98247.09;5090810;28;20055;-70
2021/11/29 08:09:48;;;;;;;22.02;11.52;;;;;;;2.73;100.00;98243.22;5075426;28;20071;-71
2021/11/29 08:12:16;;;;;;;22.38;12.65;;;;;;;2.73;100.00;98251.13;5075309;28;20044;-71
2021/11/29 08:14:44;;;;;;;20.58;12.13;;;;;;;2.67;100.00;98256.75;5075251;28;20044;-70
2021/11/29 08:17:13;;;;;;;19.63;11.45;;;;;;;2.71;100.00;98260.91;5075278;28;20135;-71
2021/11/29 08:19:41;;;;;;;17.13;8.63;;;;;;;2.73;100.00;98264.28;5075552;28;20037;-71
2021/11/29 08:22:10;;;;;;;19.58;10.45;;;;;;;2.76;100.00;98279.91;5075227;28;20044;-71
2021/11/29 08:24:39;;;;;;;17.10;9.45;;;;;;;2.71;100.00;98271.44;5075029;28;20511;-71
2021/11/29 08:27:07;;;;;;;22.33;12.80;;;;;;;2.67;100.00;98280.44;5075169;28;20052;-71
2021/11/29 08:29:35;;;;;;;22.30;12.85;;;;;;;2.80;100.00;98265.63;5075326;28;20044;-71
2021/11/29 08:32:04;;;;;;;20.60;11.80;;;;;;;2.79;100.00;98258.66;5074949;28;20409;-70
2021/11/29 08:34:34;;;;;;;19.33;10.10;;;;;;;2.81;100.00;98264.69;5074966;28;20098;-70
2021/11/29 08:37:02;;;;;;;20.90;12.27;;;;;;;2.88;100.00;98270.41;5074417;28;20037;-71
2021/11/29 08:39:33;;;;;;;19.40;11.15;;;;;;;2.84;100.00;98267.13;5074912;28;20048;-70
2021/11/29 08:42:03;;;;;;;20.20;11.77;;;;;;;2.99;100.00;98277.66;5074846;28;20098;-71
2021/11/29 08:44:32;;;;;;;20.27;9.65;;;;;;;3.00;100.00;98267.06;5074978;28;20127;-71
2021/11/29 08:47:01;;;;;;;16.52;8.45;;;;;;;2.97;100.00;98271.66;5073402;28;20048;-71
2021/11/29 08:49:30;;;;;;;15.52;8.32;;;;;;;3.04;100.00;98278.25;5074620;28;20051;-71
2021/11/29 08:51:59;;;;;;;20.33;11.15;;;;;;;2.98;100.00;98283.88;5074428;28;20052;-71
2021/11/29 08:54:31;;;;;;;10.32;5.78;;;;;;;3.07;100.00;98275.41;5074136;28;20061;-71
2021/11/29 08:57:00;;;;;;;15.57;8.50;;;;;;;2.99;100.00;98281.16;5073120;28;20048;-71
2021/11/29 08:59:29;;;;;;;16.45;8.32;;;;;;;2.92;100.00;98279.00;5075113;28;20051;-70
2021/11/29 09:01:57;;;;;;;14.35;7.53;;;;;;;2.94;100.00;98287.63;5074173;28;20060;-71
2021/11/29 09:04:26;;;;;;;10.60;5.57;;;;;;;2.94;100.00;98288.47;5073134;28;20516;-71
2021/11/29 09:06:55;;;;;;;21.45;11.82;;;;;;;2.99;100.00;98299.59;5074401;28;20051;-74
2021/11/29 09:09:24;;;;;;;14.55;7.50;;;;;;;3.05;100.00;98298.38;5073690;28;20044;-71
2021/11/29 09:11:53;;;;;;;16.15;8.90;;;;;;;3.03;100.00;98310.78;5074163;28;20106;-70
2021/11/29 09:14:22;;;;;;;22.75;11.82;;;;;;;3.02;100.00;98277.50;5074581;28;20044;-70
2021/11/29 09:16:51;;;;;;;17.05;9.82;;;;;;;3.01;100.00;98289.81;5073032;28;20048;-70
2021/11/29 09:19:19;;;;;;;15.20;7.93;;;;;;;3.04;100.00;98287.00;5073709;28;20501;-71
2021/11/29 09:21:47;;;;;;;14.18;8.20;;;;;;;3.02;100.00;98295.94;5074287;28;20048;-70
2021/11/29 09:24:16;;;;;;;14.05;6.57;;;;;;;3.08;100.00;98279.72;5073708;28;20403;-70
2021/11/29 09:26:45;;;;;;;18.80;10.15;;;;;;;3.22;100.00;98302.63;5074187;28;20102;-71
2021/11/29 09:29:13;;;;;;;13.00;6.95;;;;;;;3.24;100.00;98295.47;5073834;28;20036;-70
2021/11/29 09:31:45;;;;;;;12.73;6.82;;;;;;;3.25;100.00;98303.28;5074258;28;20079;-70
2021/11/29 09:34:13;;;;;;;12.18;6.85;;;;;;;3.12;100.00;98312.88;5073819;28;20489;-70
2021/11/29 09:36:42;;;;;;;16.13;7.28;;;;;;;3.23;100.00;98272.69;5073958;28;20128;-70
2021/11/29 09:39:10;;;;;;;13.88;8.63;;;;;;;3.17;100.00;98303.72;5073710;28;20474;-70
2021/11/29 09:41:38;;;;;;;19.98;11.15;;;;;;;3.25;100.00;98305.91;5073847;28;20076;-70
2021/11/29 09:44:07;;;;;;;16.65;8.35;;;;;;;3.31;100.00;98313.44;5073540;28;20044;-72
2021/11/29 09:46:35;;;;;;;21.08;10.20;;;;;;;3.29;100.00;98325.88;5073772;28;20117;-71
2021/11/29 09:49:05;;;;;;;19.08;10.40;;;;;;;3.31;100.00;98333.69;5073249;28;20076;-72
2021/11/29 09:51:36;;;;;;;17.70;9.90;;;;;;;3.43;100.00;98330.28;5073330;28;20135;-71
2021/11/29 09:54:07;;;;;;;15.38;9.27;;;;;;;3.54;100.00;98330.47;5073423;28;20055;-69
2021/11/29 09:56:36;;;;;;;18.55;10.40;;;;;;;3.49;100.00;98315.91;5073448;28;20044;-70
2021/11/29 09:59:05;;;;;;;13.32;7.20;;;;;;;3.54;100.00;98321.72;5073100;28;20047;-71
2021/11/29 10:01:33;;;;;;;17.45;9.43;;;;;;;3.54;100.00;98332.25;5073044;28;20052;-71
2021/11/29 10:04:06;;;;;;;13.68;7.72;;;;;;;3.65;100.00;98312.19;5072929;28;20097;-70
2021/11/29 10:06:34;;;;;;;18.35;10.30;;;;;;;3.62;100.00;98322.94;5074059;28;20135;-71
2021/11/29 10:09:27;;;;;;;16.55;9.95;;;;;;;3.50;100.00;98326.34;5073328;28;20040;-71
2021/11/29 10:11:59;;;;;;;17.25;10.10;;;;;;;3.41;100.00;98325.13;5073597;28;20051;-71
2021/11/29 10:14:28;;;;;;;15.73;9.38;;;;;;;3.50;100.00;98330.75;5073627;28;20098;-70
2021/11/29 10:17:01;;;;;;;20.15;10.68;;;;;;;3.57;100.00;98339.97;5073325;28;20045;-71
2021/11/29 10:19:36;;;;;;;16.97;10.00;;;;;;;3.53;100.00;98334.03;5073012;28;20040;-69
2021/11/29 10:22:16;;;;;;;16.00;9.40;;;;;;;3.65;100.00;98343.81;5073165;28;20281;-69
2021/11/29 10:24:46;;;;;;;15.55;7.95;;;;;;;3.65;100.00;98358.78;5073124;28;20040;-71
2021/11/29 10:27:14;;;;;;;19.88;10.27;;;;;;;3.74;100.00;98339.75;5073329;28;20048;-71
2021/11/29 10:29:50;;;;;;;17.98;9.93;;;;;;;3.67;100.00;98333.22;5073186;28;20095;-71
2021/11/29 10:32:30;;;;;;;14.70;6.10;;;;;;;3.74;100.00;98322.16;5073009;28;20048;-71
2021/11/29 10:35:00;;;;;;;14.07;8.93;;;;;;;3.68;100.00;98342.81;5073288;28;20044;-71
2021/11/29 10:37:33;;;;;;;20.23;10.60;;;;;;;3.78;100.00;98343.91;5072905;28;20079;-70
2021/11/29 10:40:01;;;;;;;18.05;10.85;;;;;;;3.74;100.00;98351.16;5072956;28;20490;-73
2021/11/29 10:42:30;;;;;;;11.57;6.20;;;;;;;3.77;100.00;98339.59;5073048;28;20493;-70
2021/11/29 10:44:58;;;;;;;13.95;7.43;;;;;;;3.65;100.00;98366.72;5072964;28;20041;-70
2021/11/29 10:47:27;;;;;;;15.75;8.38;;;;;;;3.59;100.00;98344.22;5073005;28;20047;-70
2021/11/29 10:49:58;;;;;;;16.33;10.15;;;;;;;3.82;100.00;98355.13;5073121;28;20055;-70
2021/11/29 10:52:30;;;;;;;21.42;11.18;;;;;;;3.99;100.00;98361.03;5073163;28;20123;-70
2021/11/29 10:55:00;;;;;;;15.65;10.30;;;;;;;4.10;100.00;98355.06;5072897;28;20119;-70
2021/11/29 10:57:30;;;;;;;19.55;10.60;;;;;;;4.12;100.00;98357.59;5073046;28;20048;-71
2021/11/29 10:59:59;;;;;;;16.88;10.02;;;;;;;4.02;100.00;98352.91;5072920;28;20474;-71
2021/11/29 11:02:30;;;;;;;16.02;10.15;;;;;;;3.81;100.00;98354.28;5073178;28;20174;-71
2021/11/29 11:05:05;;;;;;;19.77;11.63;;;;;;;3.73;100.00;98349.47;5072600;28;20045;-71
2021/11/29 11:07:38;;;;;;;19.63;10.48;;;;;;;3.74;100.00;98330.06;5073186;28;20402;-71
2021/11/29 11:10:09;;;;;;;15.07;8.02;;;;;;;3.61;100.00;98328.31;5072656;28;20045;-71
2021/11/29 11:12:38;;;;;;;17.40;10.48;;;;;;;3.56;100.00;98340.91;5072874;28;20051;-71
2021/11/29 11:15:10;;;;;;;19.50;11.77;;;;;;;3.67;100.00;98346.38;5072537;28;20068;-71
2021/11/29 11:17:59;;;;;;;16.13;8.15;;;;;;;3.61;100.00;98354.66;5072436;28;20037;-70
2021/11/29 11:20:28;;;;;;;21.70;11.55;;;;;;;3.68;100.00;98361.25;5072378;28;20470;-71
2021/11/29 11:22:58;;;;;;;16.48;9.82;;;;;;;3.61;100.00;98362.56;5072677;28;20394;-70
2021/11/29 11:25:31;;;;;;;19.88;11.57;;;;;;;3.57;100.00;98379.50;5072312;28;20118;-71
2021/11/29 11:28:04;;;;;;;20.77;11.35;;;;;;;3.66;100.00;98381.56;5073391;28;20071;-71
2021/11/29 11:30:34;;;;;;;20.27;11.07;;;;;;;3.70;100.00;98385.75;5072614;28;20489;-70